Observations for LEEDS AND BRADFORD, United Kingdom (EGNM)

EGNM 150020Z 29008KT 9999 FEW010 SCT030 01/00 Q0986 
EGNM 142350Z 30010KT 9999 FEW008 SCT035 01/00 Q0985 
EGNM 142320Z 27009KT 9999 FEW010 SCT014 01/M00 Q0985
EGNM 142250Z 26015KT 9999 -SHRA FEW010 SCT014 01/00 Q0984   
EGNM 142220Z 27011KT 190V280 9999 FEW009 SCT013CB 02/01 Q0984   
EGNM 142150Z 27011KT 9999 FEW009 SCT013CB 02/01 Q0984   
EGNM 142120Z 26009KT 9999 -RASN FEW006 SCT010 02/01 Q0984   
EGNM 142050Z 26009KT 9999 -SN FEW006 SCT010 02/00 Q0984 
EGNM 142020Z 27010KT 9999 FEW010 02/00 Q0984
EGNM 141950Z 28013KT 260V350 9999 FEW008 02/00 Q0983
EGNM 141920Z 27007KT 9999 FEW008 02/00 Q0983
EGNM 141850Z 24004KT 220V280 9999 SCT006 SCT013 02/00 Q0983 
EGNM 141820Z 27009KT 250V350 9999 SCT005 BKN015 03/01 Q0983 
EGNM 141750Z 25005KT 220V280 9999 SCT005 BKN015 02/01 Q0982 
EGNM 141720Z 26009KT 9999 SCT008 SCT020 02/01 Q0982 
EGNM 141650Z 25012KT 220V280 4000 -SN FEW004 BKN010 02/01 Q0982 
EGNM 141620Z 25011KT 200V280 7000 RA FEW004 BKN010 03/02 Q0981  
EGNM 141520Z 22012KT 190V280 9999 -RA FEW005 BKN015 03/02 Q0981 
EGNM 141450Z 22010KT 180V250 9999 BKN015 04/01 Q0982
EGNM 141420Z 22008G18KT 190V260 9999 -SHRA BKN015 03/02 Q0982   
EGNM 141350Z 23009KT 190V270 9999 -SHRA BKN015 04/02 Q0982  
EGNM 141320Z 23012KT 180V270 9999 -SHRA FEW012 BKN018 04/01 Q0982   
EGNM 141250Z 23013KT 190V270 9999 -SHRA FEW012 SCT017 04/01 Q0982   
EGNM 141220Z 23010G20KT 190V250 9999 -SHRA FEW012 SCT017 04/02 Q0983
EGNM 141150Z 24011G21KT 200V290 9999 4000W -SHRA FEW012 SCT017 03/02 Q0983  
EGNM 141120Z 23011G22KT 200V280 9999 VCSH SCT014 04/01 Q0983
EGNM 141050Z 23010KT 180V270 9999 SCT015 04/01 Q0984
EGNM 141020Z 25011KT 210V280 9999 SCT012 04/02 Q0984
EGNM 140950Z 25009KT 190V350 9999 SCT012 03/01 Q0984
EGNM 140920Z 26012G23KT 190V350 9999 FEW008 SCT015 03/01 Q0984  
EGNM 140850Z 25012KT 190V280 9999 VCSH SCT008 SCT013 03/01 Q0984
EGNM 140820Z 25011KT 190V280 9999 -SHRASN SCT008 SCT013 02/01 Q0985 
EGNM 140750Z 25009KT 210V280 9999 SCT010 SCT015 03/01 Q0985 
EGNM 140720Z 25005KT 200V350 9999 SCT010 SCT015 03/01 Q0985 
EGNM 140650Z 26008KT 190V290 9999 -SHRA SCT008 SCT013 02/01 Q0985   
EGNM 140620Z 24005KT 190V280 9999 -SHRASN SCT011 SCT019 02/00 Q0985 
EGNM 140550Z 24008KT 200V270 9999 FEW009 SCT018 02/00 Q0984 
EGNM 140520Z 24005KT 200V270 9999 FEW020 02/M01 Q0985   
EGNM 140450Z VRB05KT 9999 FEW020 02/M00 Q0985   
EGNM 140420Z 22007G17KT 190V280 9999 FEW020 02/M01 Q0985
EGNM 140350Z 27009KT 220V350 9999 SCT009 02/M00 Q0985   
EGNM 140320Z 28008KT 240V350 9000 SCT009 02/M01 Q0985   
EGNM 140250Z 26008KT 190V320 9000 SCT009 02/00 Q0985
EGNM 140220Z 23005KT 200V270 4000 SCT016 01/00 Q0985
EGNM 140150Z 27008KT 190V290 4000 -SHSN SCT016 01/00 Q0985  
EGNM 140120Z 25008KT 190V300 9000 SCT016 02/M00 Q0985   
EGNM 140050Z 27007KT 210V350 9000 SCT016 02/M01 Q0985   
EGNM 140020Z 27017G30KT 250V350 9000 SCT016 02/M01 Q0984
EGNM 132350Z 27017KT 190V350 9999 SCT016 02/M00 Q0984